sensor_id;sensor_type;location;lat;lon;timestamp;P1;durP1;ratioP1;P2;durP2;ratioP2
58196;SDS011;43999;51.660;5.616;2023-04-03T00:02:01;7.97;;;6.70;;
58196;SDS011;43999;51.660;5.616;2023-04-03T00:04:44;6.63;;;5.93;;
58196;SDS011;43999;51.660;5.616;2023-04-03T00:07:17;8.13;;;5.60;;
58196;SDS011;43999;51.660;5.616;2023-04-03T00:09:46;6.05;;;5.45;;
58196;SDS011;43999;51.660;5.616;2023-04-03T00:12:23;7.63;;;6.05;;
58196;SDS011;43999;51.660;5.616;2023-04-03T00:15:00;5.80;;;5.20;;
58196;SDS011;43999;51.660;5.616;2023-04-03T00:17:31;7.63;;;5.78;;
58196;SDS011;43999;51.660;5.616;2023-04-03T00:20:02;7.35;;;6.00;;
58196;SDS011;43999;51.660;5.616;2023-04-03T00:22:35;7.95;;;6.55;;
58196;SDS011;43999;51.660;5.616;2023-04-03T00:25:13;12.50;;;8.45;;
58196;SDS011;43999;51.660;5.616;2023-04-03T00:27:42;7.85;;;6.97;;
58196;SDS011;43999;51.660;5.616;2023-04-03T00:30:17;8.38;;;6.05;;
58196;SDS011;43999;51.660;5.616;2023-04-03T00:32:51;7.78;;;5.85;;
58196;SDS011;43999;51.660;5.616;2023-04-03T00:35:22;8.13;;;6.90;;
58196;SDS011;43999;51.660;5.616;2023-04-03T00:37:52;10.27;;;7.28;;
58196;SDS011;43999;51.660;5.616;2023-04-03T00:40:23;7.70;;;6.25;;
58196;SDS011;43999;51.660;5.616;2023-04-03T00:42:57;6.72;;;6.05;;
58196;SDS011;43999;51.660;5.616;2023-04-03T00:45:31;11.15;;;7.30;;
58196;SDS011;43999;51.660;5.616;2023-04-03T00:48:10;7.57;;;6.88;;
58196;SDS011;43999;51.660;5.616;2023-04-03T00:50:51;8.23;;;6.60;;
58196;SDS011;43999;51.660;5.616;2023-04-03T00:53:24;9.27;;;6.45;;
58196;SDS011;43999;51.660;5.616;2023-04-03T00:56:00;9.32;;;7.03;;
58196;SDS011;43999;51.660;5.616;2023-04-03T00:58:34;7.88;;;5.78;;
58196;SDS011;43999;51.660;5.616;2023-04-03T01:01:41;8.77;;;6.90;;
58196;SDS011;43999;51.660;5.616;2023-04-03T01:04:27;6.53;;;5.82;;
58196;SDS011;43999;51.660;5.616;2023-04-03T01:07:01;6.70;;;6.03;;
58196;SDS011;43999;51.660;5.616;2023-04-03T01:09:44;7.75;;;6.43;;
58196;SDS011;43999;51.660;5.616;2023-04-03T01:14:58;9.10;;;6.90;;
58196;SDS011;43999;51.660;5.616;2023-04-03T01:17:47;8.75;;;6.45;;
58196;SDS011;43999;51.660;5.616;2023-04-03T01:23:39;8.15;;;6.80;;
58196;SDS011;43999;51.660;5.616;2023-04-03T01:26:39;6.28;;;5.55;;
58196;SDS011;43999;51.660;5.616;2023-04-03T01:29:11;7.43;;;6.72;;
58196;SDS011;43999;51.660;5.616;2023-04-03T01:34:32;8.77;;;7.68;;
58196;SDS011;43999;51.660;5.616;2023-04-03T01:37:08;9.10;;;6.20;;
58196;SDS011;43999;51.660;5.616;2023-04-03T01:39:38;6.47;;;5.60;;
58196;SDS011;43999;51.660;5.616;2023-04-03T01:42:07;9.57;;;5.53;;
58196;SDS011;43999;51.660;5.616;2023-04-03T01:44:38;7.10;;;5.95;;
58196;SDS011;43999;51.660;5.616;2023-04-03T01:47:07;8.38;;;5.95;;
58196;SDS011;43999;51.660;5.616;2023-04-03T01:49:42;6.18;;;5.15;;
58196;SDS011;43999;51.660;5.616;2023-04-03T01:52:19;7.80;;;5.20;;
58196;SDS011;43999;51.660;5.616;2023-04-03T01:54:47;6.43;;;4.75;;
58196;SDS011;43999;51.660;5.616;2023-04-03T01:57:21;7.00;;;6.30;;
58196;SDS011;43999;51.660;5.616;2023-04-03T02:00:03;6.95;;;5.25;;
58196;SDS011;43999;51.660;5.616;2023-04-03T02:02:38;5.40;;;4.90;;
58196;SDS011;43999;51.660;5.616;2023-04-03T02:05:06;5.47;;;4.97;;
58196;SDS011;43999;51.660;5.616;2023-04-03T02:10:12;6.50;;;5.10;;
58196;SDS011;43999;51.660;5.616;2023-04-03T02:12:41;6.25;;;5.28;;
58196;SDS011;43999;51.660;5.616;2023-04-03T02:15:11;6.28;;;5.60;;
58196;SDS011;43999;51.660;5.616;2023-04-03T02:17:40;6.38;;;5.53;;
58196;SDS011;43999;51.660;5.616;2023-04-03T02:20:10;6.15;;;4.95;;
58196;SDS011;43999;51.660;5.616;2023-04-03T02:22:43;6.57;;;4.47;;
58196;SDS011;43999;51.660;5.616;2023-04-03T02:25:10;8.43;;;5.20;;
58196;SDS011;43999;51.660;5.616;2023-04-03T02:27:40;5.53;;;4.65;;
58196;SDS011;43999;51.660;5.616;2023-04-03T02:30:12;7.40;;;4.40;;
58196;SDS011;43999;51.660;5.616;2023-04-03T02:32:54;5.20;;;4.65;;
58196;SDS011;43999;51.660;5.616;2023-04-03T02:35:55;5.43;;;4.57;;
58196;SDS011;43999;51.660;5.616;2023-04-03T02:38:24;5.85;;;4.60;;
58196;SDS011;43999;51.660;5.616;2023-04-03T02:41:06;6.28;;;4.50;;
58196;SDS011;43999;51.660;5.616;2023-04-03T02:43:42;6.10;;;4.57;;
58196;SDS011;43999;51.660;5.616;2023-04-03T02:46:11;10.25;;;4.47;;
58196;SDS011;43999;51.660;5.616;2023-04-03T02:48:42;6.60;;;3.80;;
58196;SDS011;43999;51.660;5.616;2023-04-03T02:51:17;5.53;;;4.47;;
58196;SDS011;43999;51.660;5.616;2023-04-03T02:53:49;6.00;;;4.03;;
58196;SDS011;43999;51.660;5.616;2023-04-03T02:56:24;7.35;;;4.68;;
58196;SDS011;43999;51.660;5.616;2023-04-03T02:58:53;5.57;;;4.05;;
58196;SDS011;43999;51.660;5.616;2023-04-03T03:01:23;6.97;;;4.15;;
58196;SDS011;43999;51.660;5.616;2023-04-03T03:03:52;7.00;;;4.13;;
58196;SDS011;43999;51.660;5.616;2023-04-03T03:06:20;7.43;;;4.25;;
58196;SDS011;43999;51.660;5.616;2023-04-03T03:08:51;4.65;;;3.33;;
58196;SDS011;43999;51.660;5.616;2023-04-03T03:11:27;4.85;;;3.53;;
58196;SDS011;43999;51.660;5.616;2023-04-03T03:14:05;4.88;;;3.65;;
58196;SDS011;43999;51.660;5.616;2023-04-03T03:16:35;4.65;;;4.15;;
58196;SDS011;43999;51.660;5.616;2023-04-03T03:19:05;8.63;;;3.85;;
58196;SDS011;43999;51.660;5.616;2023-04-03T03:21:33;7.43;;;4.07;;
58196;SDS011;43999;51.660;5.616;2023-04-03T03:24:03;6.60;;;4.50;;
58196;SDS011;43999;51.660;5.616;2023-04-03T03:26:56;6.85;;;4.22;;
58196;SDS011;43999;51.660;5.616;2023-04-03T03:29:35;6.78;;;4.20;;
58196;SDS011;43999;51.660;5.616;2023-04-03T03:32:05;5.68;;;3.28;;
58196;SDS011;43999;51.660;5.616;2023-04-03T03:34:34;4.80;;;4.13;;
58196;SDS011;43999;51.660;5.616;2023-04-03T03:37:03;5.05;;;3.78;;
58196;SDS011;43999;51.660;5.616;2023-04-03T03:39:34;7.05;;;4.20;;
58196;SDS011;43999;51.660;5.616;2023-04-03T03:42:02;8.18;;;4.57;;
58196;SDS011;43999;51.660;5.616;2023-04-03T03:44:31;6.05;;;3.72;;
58196;SDS011;43999;51.660;5.616;2023-04-03T03:46:59;5.38;;;3.17;;
58196;SDS011;43999;51.660;5.616;2023-04-03T03:49:29;5.22;;;3.40;;
58196;SDS011;43999;51.660;5.616;2023-04-03T03:52:00;6.93;;;3.55;;
58196;SDS011;43999;51.660;5.616;2023-04-03T03:54:29;5.63;;;3.72;;
58196;SDS011;43999;51.660;5.616;2023-04-03T03:56:57;5.28;;;3.92;;
58196;SDS011;43999;51.660;5.616;2023-04-03T03:59:37;4.50;;;2.95;;
58196;SDS011;43999;51.660;5.616;2023-04-03T04:02:07;4.45;;;3.85;;
58196;SDS011;43999;51.660;5.616;2023-04-03T04:04:41;10.68;;;7.97;;
58196;SDS011;43999;51.660;5.616;2023-04-03T04:07:18;4.95;;;3.78;;
58196;SDS011;43999;51.660;5.616;2023-04-03T04:09:49;4.72;;;3.83;;
58196;SDS011;43999;51.660;5.616;2023-04-03T04:12:20;6.18;;;3.65;;
58196;SDS011;43999;51.660;5.616;2023-04-03T04:14:50;5.90;;;3.92;;
58196;SDS011;43999;51.660;5.616;2023-04-03T04:17:29;4.55;;;3.47;;
58196;SDS011;43999;51.660;5.616;2023-04-03T04:20:01;5.20;;;3.83;;
58196;SDS011;43999;51.660;5.616;2023-04-03T04:22:34;5.95;;;4.30;;
58196;SDS011;43999;51.660;5.616;2023-04-03T04:25:12;8.52;;;4.60;;
58196;SDS011;43999;51.660;5.616;2023-04-03T04:27:51;4.90;;;3.42;;
58196;SDS011;43999;51.660;5.616;2023-04-03T04:30:22;6.60;;;3.42;;
58196;SDS011;43999;51.660;5.616;2023-04-03T04:32:58;4.65;;;3.47;;
58196;SDS011;43999;51.660;5.616;2023-04-03T04:35:33;4.70;;;4.28;;
58196;SDS011;43999;51.660;5.616;2023-04-03T04:38:30;4.78;;;3.60;;
58196;SDS011;43999;51.660;5.616;2023-04-03T04:41:58;7.85;;;3.25;;
58196;SDS011;43999;51.660;5.616;2023-04-03T04:44:48;8.15;;;3.45;;
58196;SDS011;43999;51.660;5.616;2023-04-03T04:51:10;7.45;;;4.20;;
58196;SDS011;43999;51.660;5.616;2023-04-03T04:54:10;6.55;;;3.50;;
58196;SDS011;43999;51.660;5.616;2023-04-03T04:56:55;5.22;;;3.58;;
58196;SDS011;43999;51.660;5.616;2023-04-03T04:59:57;6.30;;;3.40;;
58196;SDS011;43999;51.660;5.616;2023-04-03T05:02:39;7.65;;;3.50;;
58196;SDS011;43999;51.660;5.616;2023-04-03T05:05:14;6.82;;;3.50;;
58196;SDS011;43999;51.660;5.616;2023-04-03T05:08:16;5.50;;;3.00;;
58196;SDS011;43999;51.660;5.616;2023-04-03T05:10:52;5.32;;;3.13;;
58196;SDS011;43999;51.660;5.616;2023-04-03T05:13:58;8.32;;;4.28;;
58196;SDS011;43999;51.660;5.616;2023-04-03T05:16:36;5.75;;;4.65;;
58196;SDS011;43999;51.660;5.616;2023-04-03T05:19:06;5.00;;;3.80;;
58196;SDS011;43999;51.660;5.616;2023-04-03T05:21:47;6.47;;;4.53;;
58196;SDS011;43999;51.660;5.616;2023-04-03T05:24:48;6.43;;;3.55;;
58196;SDS011;43999;51.660;5.616;2023-04-03T05:27:21;7.25;;;4.88;;
58196;SDS011;43999;51.660;5.616;2023-04-03T05:30:13;5.25;;;3.65;;
58196;SDS011;43999;51.660;5.616;2023-04-03T05:32:48;7.00;;;3.95;;
58196;SDS011;43999;51.660;5.616;2023-04-03T05:35:42;7.70;;;3.70;;
58196;SDS011;43999;51.660;5.616;2023-04-03T05:38:32;5.32;;;3.25;;
58196;SDS011;43999;51.660;5.616;2023-04-03T05:41:04;4.35;;;2.90;;
58196;SDS011;43999;51.660;5.616;2023-04-03T05:43:33;5.53;;;3.42;;
58196;SDS011;43999;51.660;5.616;2023-04-03T05:46:13;6.53;;;3.53;;
58196;SDS011;43999;51.660;5.616;2023-04-03T05:48:54;6.60;;;2.78;;
58196;SDS011;43999;51.660;5.616;2023-04-03T05:51:34;4.60;;;3.08;;
58196;SDS011;43999;51.660;5.616;2023-04-03T05:54:27;5.05;;;3.47;;
58196;SDS011;43999;51.660;5.616;2023-04-03T05:57:05;5.50;;;3.30;;
58196;SDS011;43999;51.660;5.616;2023-04-03T06:00:05;5.57;;;3.38;;
58196;SDS011;43999;51.660;5.616;2023-04-03T06:03:10;3.97;;;2.53;;
58196;SDS011;43999;51.660;5.616;2023-04-03T06:05:51;11.43;;;4.28;;
58196;SDS011;43999;51.660;5.616;2023-04-03T06:08:44;4.05;;;3.25;;
58196;SDS011;43999;51.660;5.616;2023-04-03T06:11:17;4.97;;;3.15;;
58196;SDS011;43999;51.660;5.616;2023-04-03T06:14:10;5.95;;;3.13;;
58196;SDS011;43999;51.660;5.616;2023-04-03T06:17:14;7.47;;;3.10;;
58196;SDS011;43999;51.660;5.616;2023-04-03T06:19:53;4.45;;;3.63;;
58196;SDS011;43999;51.660;5.616;2023-04-03T06:22:31;4.78;;;3.00;;
58196;SDS011;43999;51.660;5.616;2023-04-03T06:25:04;7.68;;;3.05;;
58196;SDS011;43999;51.660;5.616;2023-04-03T06:27:46;4.72;;;3.35;;
58196;SDS011;43999;51.660;5.616;2023-04-03T06:30:39;4.38;;;2.75;;
58196;SDS011;43999;51.660;5.616;2023-04-03T06:33:14;5.85;;;3.28;;
58196;SDS011;43999;51.660;5.616;2023-04-03T06:36:04;7.30;;;3.90;;
58196;SDS011;43999;51.660;5.616;2023-04-03T06:39:19;4.45;;;3.08;;
58196;SDS011;43999;51.660;5.616;2023-04-03T06:41:52;8.82;;;3.95;;
58196;SDS011;43999;51.660;5.616;2023-04-03T06:44:57;5.15;;;2.72;;
58196;SDS011;43999;51.660;5.616;2023-04-03T06:52:05;5.50;;;3.30;;
58196;SDS011;43999;51.660;5.616;2023-04-03T06:55:41;4.22;;;3.00;;
58196;SDS011;43999;51.660;5.616;2023-04-03T06:58:21;5.93;;;2.92;;
58196;SDS011;43999;51.660;5.616;2023-04-03T07:01:43;5.90;;;3.00;;
58196;SDS011;43999;51.660;5.616;2023-04-03T07:04:26;6.00;;;3.20;;
58196;SDS011;43999;51.660;5.616;2023-04-03T07:06:56;5.95;;;3.40;;
58196;SDS011;43999;51.660;5.616;2023-04-03T07:09:32;4.43;;;2.80;;
58196;SDS011;43999;51.660;5.616;2023-04-03T07:12:24;5.88;;;2.70;;
58196;SDS011;43999;51.660;5.616;2023-04-03T07:15:14;5.70;;;3.05;;
58196;SDS011;43999;51.660;5.616;2023-04-03T07:17:54;5.05;;;3.33;;
58196;SDS011;43999;51.660;5.616;2023-04-03T07:20:38;6.35;;;2.90;;
58196;SDS011;43999;51.660;5.616;2023-04-03T07:23:09;4.60;;;2.80;;
58196;SDS011;43999;51.660;5.616;2023-04-03T07:25:46;3.67;;;2.65;;
58196;SDS011;43999;51.660;5.616;2023-04-03T07:28:43;4.90;;;2.88;;
58196;SDS011;43999;51.660;5.616;2023-04-03T07:31:19;6.05;;;3.03;;
58196;SDS011;43999;51.660;5.616;2023-04-03T07:33:50;3.45;;;2.35;;
58196;SDS011;43999;51.660;5.616;2023-04-03T07:36:39;4.68;;;2.65;;
58196;SDS011;43999;51.660;5.616;2023-04-03T07:39:26;5.78;;;3.78;;
58196;SDS011;43999;51.660;5.616;2023-04-03T07:42:03;7.47;;;2.95;;
58196;SDS011;43999;51.660;5.616;2023-04-03T07:44:44;4.95;;;2.88;;
58196;SDS011;43999;51.660;5.616;2023-04-03T07:47:57;3.70;;;3.00;;
58196;SDS011;43999;51.660;5.616;2023-04-03T07:50:51;5.15;;;2.70;;
58196;SDS011;43999;51.660;5.616;2023-04-03T07:53:32;6.22;;;2.10;;
58196;SDS011;43999;51.660;5.616;2023-04-03T07:56:09;4.43;;;2.63;;
58196;SDS011;43999;51.660;5.616;2023-04-03T07:59:13;4.18;;;2.70;;
58196;SDS011;43999;51.660;5.616;2023-04-03T08:01:59;4.95;;;3.20;;
58196;SDS011;43999;51.660;5.616;2023-04-03T08:04:52;3.97;;;2.70;;
58196;SDS011;43999;51.660;5.616;2023-04-03T08:07:54;5.50;;;1.95;;
58196;SDS011;43999;51.660;5.616;2023-04-03T08:13:56;4.00;;;2.50;;
58196;SDS011;43999;51.660;5.616;2023-04-03T08:16:43;8.80;;;3.17;;
58196;SDS011;43999;51.660;5.616;2023-04-03T08:19:17;4.05;;;3.00;;
58196;SDS011;43999;51.660;5.616;2023-04-03T08:21:59;3.50;;;2.28;;
58196;SDS011;43999;51.660;5.616;2023-04-03T08:24:47;4.72;;;2.50;;
58196;SDS011;43999;51.660;5.616;2023-04-03T08:27:49;3.70;;;2.22;;
58196;SDS011;43999;51.660;5.616;2023-04-03T08:30:25;5.03;;;1.90;;
58196;SDS011;43999;51.660;5.616;2023-04-03T08:33:03;4.10;;;2.60;;
58196;SDS011;43999;51.660;5.616;2023-04-03T08:35:45;5.20;;;2.08;;
58196;SDS011;43999;51.660;5.616;2023-04-03T08:38:13;5.80;;;2.88;;
58196;SDS011;43999;51.660;5.616;2023-04-03T08:40:48;4.00;;;1.80;;
58196;SDS011;43999;51.660;5.616;2023-04-03T08:53:58;3.33;;;2.10;;
58196;SDS011;43999;51.660;5.616;2023-04-03T09:01:00;2.03;;;1.70;;
58196;SDS011;43999;51.660;5.616;2023-04-03T09:04:15;6.88;;;2.00;;
58196;SDS011;43999;51.660;5.616;2023-04-03T09:07:30;2.40;;;1.90;;
58196;SDS011;43999;51.660;5.616;2023-04-03T09:10:27;3.15;;;1.75;;
58196;SDS011;43999;51.660;5.616;2023-04-03T09:13:27;2.42;;;1.50;;
58196;SDS011;43999;51.660;5.616;2023-04-03T09:17:12;3.47;;;2.22;;
58196;SDS011;43999;51.660;5.616;2023-04-03T09:24:15;2.33;;;1.30;;
58196;SDS011;43999;51.660;5.616;2023-04-03T09:26:57;3.58;;;1.65;;
58196;SDS011;43999;51.660;5.616;2023-04-03T09:30:00;2.97;;;1.63;;
58196;SDS011;43999;51.660;5.616;2023-04-03T09:32:45;4.18;;;2.25;;
58196;SDS011;43999;51.660;5.616;2023-04-03T09:35:32;1.83;;;1.20;;
58196;SDS011;43999;51.660;5.616;2023-04-03T09:38:32;2.00;;;1.30;;
58196;SDS011;43999;51.660;5.616;2023-04-03T09:41:12;3.00;;;1.30;;
58196;SDS011;43999;51.660;5.616;2023-04-03T09:43:59;1.85;;;1.10;;
58196;SDS011;43999;51.660;5.616;2023-04-03T09:46:32;1.40;;;1.00;;
58196;SDS011;43999;51.660;5.616;2023-04-03T09:49:09;2.70;;;1.88;;
58196;SDS011;43999;51.660;5.616;2023-04-03T09:51:52;2.03;;;1.40;;
58196;SDS011;43999;51.660;5.616;2023-04-03T09:54:34;1.88;;;1.00;;
58196;SDS011;43999;51.660;5.616;2023-04-03T09:57:09;3.03;;;1.40;;
58196;SDS011;43999;51.660;5.616;2023-04-03T09:59:44;1.98;;;1.23;;
58196;SDS011;43999;51.660;5.616;2023-04-03T10:02:35;2.28;;;1.10;;
58196;SDS011;43999;51.660;5.616;2023-04-03T10:05:41;4.68;;;1.50;;
58196;SDS011;43999;51.660;5.616;2023-04-03T10:16:41;5.18;;;1.10;;
58196;SDS011;43999;51.660;5.616;2023-04-03T10:19:49;1.50;;;1.10;;
58196;SDS011;43999;51.660;5.616;2023-04-03T10:36:42;1.95;;;1.05;;
58196;SDS011;43999;51.660;5.616;2023-04-03T10:51:45;2.28;;;1.63;;
58196;SDS011;43999;51.660;5.616;2023-04-03T10:58:31;2.13;;;1.30;;
58196;SDS011;43999;51.660;5.616;2023-04-03T11:01:19;1.70;;;0.90;;
58196;SDS011;43999;51.660;5.616;2023-04-03T11:04:13;2.20;;;1.13;;
58196;SDS011;43999;51.660;5.616;2023-04-03T11:07:04;2.90;;;1.20;;
58196;SDS011;43999;51.660;5.616;2023-04-03T11:09:48;2.95;;;1.00;;
58196;SDS011;43999;51.660;5.616;2023-04-03T11:15:18;1.80;;;1.20;;
58196;SDS011;43999;51.660;5.616;2023-04-03T11:18:04;1.90;;;1.30;;
58196;SDS011;43999;51.660;5.616;2023-04-03T11:24:22;2.53;;;1.35;;
58196;SDS011;43999;51.660;5.616;2023-04-03T11:27:01;3.70;;;1.38;;
58196;SDS011;43999;51.660;5.616;2023-04-03T11:29:38;2.25;;;1.35;;
58196;SDS011;43999;51.660;5.616;2023-04-03T11:35:45;3.08;;;1.20;;
58196;SDS011;43999;51.660;5.616;2023-04-03T11:38:28;3.03;;;1.17;;
58196;SDS011;43999;51.660;5.616;2023-04-03T11:41:03;5.45;;;1.52;;
58196;SDS011;43999;51.660;5.616;2023-04-03T11:44:40;1.90;;;1.10;;
58196;SDS011;43999;51.660;5.616;2023-04-03T11:47:03;2.17;;;1.50;;
58196;SDS011;43999;51.660;5.616;2023-04-03T11:53:00;2.33;;;1.17;;
58196;SDS011;43999;51.660;5.616;2023-04-03T12:12:58;3.35;;;2.10;;
58196;SDS011;43999;51.660;5.616;2023-04-03T12:43:42;5.93;;;2.00;;
58196;SDS011;43999;51.660;5.616;2023-04-03T12:47:23;4.57;;;2.72;;
58196;SDS011;43999;51.660;5.616;2023-04-03T12:50:20;2.10;;;1.60;;
58196;SDS011;43999;51.660;5.616;2023-04-03T12:53:03;2.75;;;1.63;;
58196;SDS011;43999;51.660;5.616;2023-04-03T12:55:42;3.90;;;1.63;;
58196;SDS011;43999;51.660;5.616;2023-04-03T12:58:22;2.97;;;1.30;;
58196;SDS011;43999;51.660;5.616;2023-04-03T13:01:01;4.75;;;2.05;;
58196;SDS011;43999;51.660;5.616;2023-04-03T13:03:54;3.20;;;1.45;;
58196;SDS011;43999;51.660;5.616;2023-04-03T13:06:41;2.65;;;1.27;;
58196;SDS011;43999;51.660;5.616;2023-04-03T13:09:35;5.72;;;1.95;;
58196;SDS011;43999;51.660;5.616;2023-04-03T13:12:14;3.13;;;1.85;;
58196;SDS011;43999;51.660;5.616;2023-04-03T13:14:54;5.13;;;1.60;;
58196;SDS011;43999;51.660;5.616;2023-04-03T13:17:40;2.95;;;1.98;;
58196;SDS011;43999;51.660;5.616;2023-04-03T13:20:14;4.53;;;1.95;;
58196;SDS011;43999;51.660;5.616;2023-04-03T13:23:07;3.85;;;1.70;;
58196;SDS011;43999;51.660;5.616;2023-04-03T13:25:42;2.88;;;2.30;;
58196;SDS011;43999;51.660;5.616;2023-04-03T13:28:15;4.20;;;2.10;;
58196;SDS011;43999;51.660;5.616;2023-04-03T13:31:08;3.30;;;2.05;;
58196;SDS011;43999;51.660;5.616;2023-04-03T13:34:11;2.00;;;1.50;;
58196;SDS011;43999;51.660;5.616;2023-04-03T13:39:39;4.13;;;1.45;;
58196;SDS011;43999;51.660;5.616;2023-04-03T13:42:20;4.07;;;2.22;;
58196;SDS011;43999;51.660;5.616;2023-04-03T13:45:22;3.67;;;2.40;;
58196;SDS011;43999;51.660;5.616;2023-04-03T13:48:14;3.38;;;2.28;;
58196;SDS011;43999;51.660;5.616;2023-04-03T13:51:16;3.03;;;1.55;;
58196;SDS011;43999;51.660;5.616;2023-04-03T13:53:46;3.45;;;1.80;;
58196;SDS011;43999;51.660;5.616;2023-04-03T13:57:00;4.43;;;2.25;;
58196;SDS011;43999;51.660;5.616;2023-04-03T13:59:33;2.97;;;2.30;;
58196;SDS011;43999;51.660;5.616;2023-04-03T14:04:30;3.65;;;2.00;;
58196;SDS011;43999;51.660;5.616;2023-04-03T14:07:16;3.28;;;2.35;;
58196;SDS011;43999;51.660;5.616;2023-04-03T14:09:53;2.80;;;2.05;;
58196;SDS011;43999;51.660;5.616;2023-04-03T14:12:38;5.35;;;2.70;;
58196;SDS011;43999;51.660;5.616;2023-04-03T14:15:27;2.83;;;1.75;;
58196;SDS011;43999;51.660;5.616;2023-04-03T14:18:00;4.10;;;2.15;;
58196;SDS011;43999;51.660;5.616;2023-04-03T14:20:31;2.85;;;1.92;;
58196;SDS011;43999;51.660;5.616;2023-04-03T14:22:58;3.33;;;1.95;;
58196;SDS011;43999;51.660;5.616;2023-04-03T14:25:29;4.40;;;3.03;;
58196;SDS011;43999;51.660;5.616;2023-04-03T14:27:57;3.80;;;2.25;;
58196;SDS011;43999;51.660;5.616;2023-04-03T14:30:30;3.72;;;1.90;;
58196;SDS011;43999;51.660;5.616;2023-04-03T14:33:02;3.83;;;2.40;;
58196;SDS011;43999;51.660;5.616;2023-04-03T14:35:30;4.50;;;2.25;;
58196;SDS011;43999;51.660;5.616;2023-04-03T14:38:01;3.22;;;1.77;;
58196;SDS011;43999;51.660;5.616;2023-04-03T14:40:32;2.80;;;2.20;;
58196;SDS011;43999;51.660;5.616;2023-04-03T14:43:00;4.50;;;1.80;;
58196;SDS011;43999;51.660;5.616;2023-04-03T14:45:35;3.42;;;2.20;;
58196;SDS011;43999;51.660;5.616;2023-04-03T14:48:04;3.38;;;1.83;;
58196;SDS011;43999;51.660;5.616;2023-04-03T14:50:46;4.35;;;2.03;;
58196;SDS011;43999;51.660;5.616;2023-04-03T14:53:31;2.42;;;1.70;;
58196;SDS011;43999;51.660;5.616;2023-04-03T14:56:23;2.80;;;2.05;;
58196;SDS011;43999;51.660;5.616;2023-04-03T14:59:04;3.60;;;1.63;;
58196;SDS011;43999;51.660;5.616;2023-04-03T15:01:48;8.48;;;2.30;;
58196;SDS011;43999;51.660;5.616;2023-04-03T15:04:19;3.08;;;2.25;;
58196;SDS011;43999;51.660;5.616;2023-04-03T15:06:52;3.60;;;2.17;;
58196;SDS011;43999;51.660;5.616;2023-04-03T15:09:36;5.75;;;2.53;;
58196;SDS011;43999;51.660;5.616;2023-04-03T15:12:07;4.32;;;2.38;;
58196;SDS011;43999;51.660;5.616;2023-04-03T15:14:41;3.70;;;2.17;;
58196;SDS011;43999;51.660;5.616;2023-04-03T15:17:26;3.72;;;2.20;;
58196;SDS011;43999;51.660;5.616;2023-04-03T15:19:54;3.78;;;2.15;;
58196;SDS011;43999;51.660;5.616;2023-04-03T15:22:26;3.28;;;2.20;;
58196;SDS011;43999;51.660;5.616;2023-04-03T15:25:02;3.13;;;2.20;;
58196;SDS011;43999;51.660;5.616;2023-04-03T15:27:32;2.70;;;2.30;;
58196;SDS011;43999;51.660;5.616;2023-04-03T15:30:05;7.05;;;2.80;;
58196;SDS011;43999;51.660;5.616;2023-04-03T15:32:41;5.32;;;2.22;;
58196;SDS011;43999;51.660;5.616;2023-04-03T15:35:13;3.60;;;1.98;;
58196;SDS011;43999;51.660;5.616;2023-04-03T15:37:49;3.20;;;2.17;;
58196;SDS011;43999;51.660;5.616;2023-04-03T15:40:19;3.38;;;2.00;;
58196;SDS011;43999;51.660;5.616;2023-04-03T15:42:51;3.22;;;1.80;;
58196;SDS011;43999;51.660;5.616;2023-04-03T15:45:21;4.45;;;1.98;;
58196;SDS011;43999;51.660;5.616;2023-04-03T15:47:52;3.00;;;2.28;;
58196;SDS011;43999;51.660;5.616;2023-04-03T15:50:21;4.95;;;2.20;;
58196;SDS011;43999;51.660;5.616;2023-04-03T15:52:52;4.82;;;2.35;;
58196;SDS011;43999;51.660;5.616;2023-04-03T15:55:30;5.53;;;2.35;;
58196;SDS011;43999;51.660;5.616;2023-04-03T15:58:03;4.47;;;1.88;;
58196;SDS011;43999;51.660;5.616;2023-04-03T16:00:48;4.15;;;1.80;;
58196;SDS011;43999;51.660;5.616;2023-04-03T16:03:16;3.58;;;2.20;;
58196;SDS011;43999;51.660;5.616;2023-04-03T16:05:49;6.00;;;2.88;;
58196;SDS011;43999;51.660;5.616;2023-04-03T16:08:19;3.58;;;1.98;;
58196;SDS011;43999;51.660;5.616;2023-04-03T16:10:50;3.80;;;2.10;;
58196;SDS011;43999;51.660;5.616;2023-04-03T16:13:19;3.38;;;1.90;;
58196;SDS011;43999;51.660;5.616;2023-04-03T16:15:53;3.55;;;2.03;;
58196;SDS011;43999;51.660;5.616;2023-04-03T16:18:21;3.97;;;1.58;;
58196;SDS011;43999;51.660;5.616;2023-04-03T16:21:04;5.45;;;2.42;;
58196;SDS011;43999;51.660;5.616;2023-04-03T16:23:49;4.75;;;2.22;;
58196;SDS011;43999;51.660;5.616;2023-04-03T16:26:20;2.95;;;2.30;;
58196;SDS011;43999;51.660;5.616;2023-04-03T16:28:50;3.80;;;2.13;;
58196;SDS011;43999;51.660;5.616;2023-04-03T16:31:25;4.15;;;2.00;;
58196;SDS011;43999;51.660;5.616;2023-04-03T16:33:55;2.58;;;1.90;;
58196;SDS011;43999;51.660;5.616;2023-04-03T16:36:27;4.03;;;2.30;;
58196;SDS011;43999;51.660;5.616;2023-04-03T16:38:55;3.63;;;2.28;;
58196;SDS011;43999;51.660;5.616;2023-04-03T16:41:40;3.35;;;2.40;;
58196;SDS011;43999;51.660;5.616;2023-04-03T16:44:09;5.57;;;2.13;;
58196;SDS011;43999;51.660;5.616;2023-04-03T16:47:03;3.63;;;1.90;;
58196;SDS011;43999;51.660;5.616;2023-04-03T16:49:38;4.53;;;2.65;;
58196;SDS011;43999;51.660;5.616;2023-04-03T16:52:39;3.90;;;2.38;;
58196;SDS011;43999;51.660;5.616;2023-04-03T16:55:35;8.30;;;2.70;;
58196;SDS011;43999;51.660;5.616;2023-04-03T16:58:10;3.28;;;1.85;;
58196;SDS011;43999;51.660;5.616;2023-04-03T17:00:44;3.15;;;1.83;;
58196;SDS011;43999;51.660;5.616;2023-04-03T17:03:14;5.65;;;2.10;;
58196;SDS011;43999;51.660;5.616;2023-04-03T17:05:56;3.75;;;2.65;;
58196;SDS011;43999;51.660;5.616;2023-04-03T17:08:29;5.57;;;2.72;;
58196;SDS011;43999;51.660;5.616;2023-04-03T17:11:04;2.60;;;2.10;;
58196;SDS011;43999;51.660;5.616;2023-04-03T17:13:36;4.95;;;2.38;;
58196;SDS011;43999;51.660;5.616;2023-04-03T17:16:08;7.00;;;3.30;;
58196;SDS011;43999;51.660;5.616;2023-04-03T17:18:42;5.80;;;2.33;;
58196;SDS011;43999;51.660;5.616;2023-04-03T17:21:25;4.78;;;2.58;;
58196;SDS011;43999;51.660;5.616;2023-04-03T17:23:57;3.90;;;2.20;;
58196;SDS011;43999;51.660;5.616;2023-04-03T17:26:30;5.25;;;2.85;;
58196;SDS011;43999;51.660;5.616;2023-04-03T17:29:21;4.05;;;1.98;;
58196;SDS011;43999;51.660;5.616;2023-04-03T17:32:17;3.97;;;2.72;;
58196;SDS011;43999;51.660;5.616;2023-04-03T17:34:50;4.80;;;3.97;;
58196;SDS011;43999;51.660;5.616;2023-04-03T17:37:20;3.15;;;2.15;;
58196;SDS011;43999;51.660;5.616;2023-04-03T17:40:00;4.78;;;2.60;;
58196;SDS011;43999;51.660;5.616;2023-04-03T17:42:44;7.70;;;3.13;;
58196;SDS011;43999;51.660;5.616;2023-04-03T17:45:59;4.88;;;2.22;;
58196;SDS011;43999;51.660;5.616;2023-04-03T17:49:18;3.10;;;2.13;;
58196;SDS011;43999;51.660;5.616;2023-04-03T17:51:56;4.07;;;2.03;;
58196;SDS011;43999;51.660;5.616;2023-04-03T17:57:13;4.80;;;2.15;;
58196;SDS011;43999;51.660;5.616;2023-04-03T17:59:43;3.92;;;2.20;;
58196;SDS011;43999;51.660;5.616;2023-04-03T18:02:23;4.82;;;2.75;;
58196;SDS011;43999;51.660;5.616;2023-04-03T18:05:01;4.60;;;2.72;;
58196;SDS011;43999;51.660;5.616;2023-04-03T18:07:29;5.97;;;2.95;;
58196;SDS011;43999;51.660;5.616;2023-04-03T18:09:57;3.72;;;2.35;;
58196;SDS011;43999;51.660;5.616;2023-04-03T18:13:10;2.55;;;1.83;;
58196;SDS011;43999;51.660;5.616;2023-04-03T18:15:49;5.53;;;2.08;;
58196;SDS011;43999;51.660;5.616;2023-04-03T18:18:54;5.07;;;2.42;;
58196;SDS011;43999;51.660;5.616;2023-04-03T18:22:08;4.90;;;2.85;;
58196;SDS011;43999;51.660;5.616;2023-04-03T18:25:24;3.75;;;2.53;;
58196;SDS011;43999;51.660;5.616;2023-04-03T18:27:52;4.05;;;2.42;;
58196;SDS011;43999;51.660;5.616;2023-04-03T18:30:39;3.10;;;2.08;;
58196;SDS011;43999;51.660;5.616;2023-04-03T18:33:55;4.90;;;2.60;;
58196;SDS011;43999;51.660;5.616;2023-04-03T18:37:10;6.82;;;2.47;;
58196;SDS011;43999;51.660;5.616;2023-04-03T18:39:52;5.57;;;2.75;;